METAR|ÜBERSETZT|TAF
EDHK 300950Z 24008KT 9999 -DZRA SCT018 BKN023 OVC046 18/15 Q1010
Login|Impressum|Kontakt



Presse

Pressemitteilungen
Artikel aus der Presse
Bildmaterial